Elmira Corning Regional Airport
KELM : rendu visible

Aérodrome :











RETROUVEZ-NOUS SUR...

 
LOGIN :

S'inscrire | Disclaimer

   EN    FR    IT 

 









Légende :    VFR   VFR Marginal   IFR   IFR Intensif   IFR Très Intensif
Visi : 
Plafond : 
>= 8 km
>= 3000ft
5 à 8 km
1000 à 3000 ft
1500m à 5 km
500 à 1000 ft
800 à 1500m
200 à 500 ft
< 800m
< 200 ft
Symboles :   Orages  Brouillard  Fortes neiges  Fortes précipitations  Vent > 20 kt






- Altitude de l'aérodrome : 954 ft
- Code IATA : ELM


KELM - Elmira Corning Regional

DERNIER METAR :
  • 082153Z AUTO 21003KT 10SM CLR 25/22 A2993 RMK AO2 LTG DSNT SW RAE02 SLP130 P0000 T02500222

METARs EXPIRÉS :
  • 082053Z AUTO 27005KT 10SM -RA FEW070 SCT090 OVC120 23/22 A2995 RMK AO2 PK WND 36028/1954 WSHFT 1940 LTG DSNT SE AND SW RAB1957 TSE13 SLP136 P0030 60030 T02280222 53003
  • 082037Z AUTO 22005KT 8SM -RA FEW045 BKN100 OVC120 23/22 A2996 RMK AO2 PK WND 36028/1954 WSHFT 1940 LTG DSNT E AND SW RAB1957 TSE13 P0030 T02280217
  • 082019Z AUTO 21012G18KT 1SM R24/P6000FT VCTS +RA BR BKN044 BKN050 OVC080 23/22 A2997 RMK AO2 PK WND 36028/1954 WSHFT 1940 LTG DSNT SE-W RAB1957 TSE13 P0026 T02280217
  • 082006Z AUTO 36014G21KT 1 3/4SM +TSRA BR SCT042 BKN060 BKN085 23/21 A2997 RMK AO2 PK WND 36028/1954 WSHFT 1940 LTG DSNT ALQDS RAB1957 P0010 T02280206
  • 081953Z 35016G28KT 10SM TS SCT060 BKN090 BKN110 26/19 A2995 RMK AO2 PK WND 36030/1938 WSHFT 1936 LTG DSNT SE AND W TSB50 SLP135 T02560194

TAF KELM
Valide du 08 à 22h jusqu'au 09 à 18h UTC


082149Z 0822/0918 VRB03KT P6SM FEW080 SCT200
FM090900 VRB02KT 2SM BR SCT003
TEMPO 0910/0913 3/4SM BR
FM091500 15005KT P6SM FEW040
FIR KZNY / Amérique du Nord



MET'MAP, la Météo Aéronautique d'un coup d'oeil ! - Copyright ORBIFLY Décembre 2007 - Disclaimer

ORBIFLY MET'MAP TEAM :

Programmation & Développement : Alexandra Zaïnal
Sur une idée originale de : Baudouin d'Aumeries
Assistance à la programmation : Marc-Olivier Méhu
Soutien technique & logistique : Manuel Goepfert

Contact : metmap@orbifly.com




SOURCES & CREDITS :

   NOAA       Earth
Advisory